createdAt,value
2022-07-26T00:01:28.069Z,31.28
2022-07-26T00:04:00.934Z,31.20
2022-07-26T00:06:30.535Z,31.17
2022-07-26T00:08:57.936Z,31.13
2022-07-26T00:16:34.052Z,31.11
2022-07-26T00:19:04.352Z,31.01
2022-07-26T00:21:32.847Z,30.93
2022-07-26T00:24:00.422Z,30.90
2022-07-26T00:26:27.950Z,30.90
2022-07-26T00:28:55.605Z,30.89
2022-07-26T00:31:23.376Z,30.86
2022-07-26T00:37:14.985Z,30.79
2022-07-26T00:39:44.688Z,30.78
2022-07-26T00:42:13.739Z,30.79
2022-07-26T00:44:43.283Z,30.80
2022-07-26T00:47:13.514Z,30.80
2022-07-26T00:49:41.368Z,30.82
2022-07-26T00:52:11.200Z,30.85
2022-07-26T00:58:39.306Z,30.78
2022-07-26T01:01:07.217Z,30.67
2022-07-26T01:03:39.485Z,30.60
2022-07-26T01:06:07.701Z,30.57
2022-07-26T01:08:35.139Z,30.60
2022-07-26T01:11:02.907Z,30.65
2022-07-26T01:13:35.478Z,30.69
2022-07-26T01:16:04.783Z,30.69
2022-07-26T01:23:40.643Z,30.60
2022-07-26T01:26:08.159Z,30.56
2022-07-26T01:28:38.619Z,30.54
2022-07-26T01:31:10.710Z,30.57
2022-07-26T01:33:38.355Z,30.60
2022-07-26T01:36:06.234Z,30.60
2022-07-26T01:38:33.741Z,30.65
2022-07-26T01:41:01.710Z,30.64
2022-07-26T01:48:35.534Z,30.59
2022-07-26T01:51:03.951Z,30.59
2022-07-26T01:53:32.452Z,30.59
2022-07-26T01:55:59.938Z,30.57
2022-07-26T01:58:27.331Z,30.58
2022-07-26T02:00:54.900Z,30.57
2022-07-26T02:03:22.347Z,30.51
2022-07-26T02:08:34.023Z,30.44
2022-07-26T02:11:03.717Z,30.40
2022-07-26T02:13:37.862Z,30.36
2022-07-26T02:16:11.860Z,30.32
2022-07-26T02:18:40.512Z,30.32
2022-07-26T02:21:08.329Z,30.33
2022-07-26T02:23:41.511Z,30.33
2022-07-26T02:31:16.314Z,30.34
2022-07-26T02:33:44.305Z,30.32
2022-07-26T02:36:13.863Z,30.25
2022-07-26T02:38:41.306Z,30.13
2022-07-26T02:41:08.774Z,30.05
2022-07-26T02:43:37.869Z,29.96
2022-07-26T02:46:05.924Z,29.90
2022-07-26T02:52:30.469Z,30.19
2022-07-26T02:54:58.267Z,30.02
2022-07-26T02:57:25.645Z,29.90
2022-07-26T02:59:54.614Z,29.79
2022-07-26T03:02:21.975Z,29.70
2022-07-26T03:04:53.426Z,29.67
2022-07-26T03:07:21.012Z,29.59
2022-07-26T03:17:07.136Z,29.53
2022-07-26T03:19:36.498Z,29.50
2022-07-26T03:22:04.197Z,29.50
2022-07-26T03:24:34.251Z,29.55
2022-07-26T03:27:01.715Z,29.58
2022-07-26T03:29:30.742Z,29.65
2022-07-26T03:31:58.394Z,29.56
2022-07-26T03:39:29.778Z,29.25
2022-07-26T03:41:57.848Z,29.19
2022-07-26T03:44:25.230Z,29.15
2022-07-26T03:46:53.927Z,29.12
2022-07-26T03:49:21.474Z,29.16
2022-07-26T03:51:50.966Z,29.18
2022-07-26T03:54:18.343Z,29.14
2022-07-26T03:59:25.486Z,29.18
2022-07-26T04:01:55.069Z,29.23
2022-07-26T04:04:25.179Z,29.31
2022-07-26T04:06:54.612Z,29.33
2022-07-26T04:09:23.639Z,29.29
2022-07-26T04:11:54.687Z,29.19
2022-07-26T04:14:22.259Z,29.04
2022-07-26T04:16:51.942Z,28.96
2022-07-26T04:24:36.569Z,28.82
2022-07-26T04:27:04.112Z,28.76
2022-07-26T04:29:32.915Z,28.69
2022-07-26T04:32:01.999Z,28.65
2022-07-26T04:34:29.771Z,28.64
2022-07-26T04:36:57.829Z,28.64
2022-07-26T04:39:25.208Z,28.65
2022-07-26T04:44:32.158Z,28.61
2022-07-26T04:46:59.644Z,28.59
2022-07-26T04:49:27.082Z,28.61
2022-07-26T04:51:59.284Z,28.67
2022-07-26T04:54:27.117Z,28.68
2022-07-26T04:56:56.292Z,28.70
2022-07-26T04:59:23.719Z,28.68
2022-07-26T05:09:41.137Z,28.48
2022-07-26T05:12:09.994Z,28.44
2022-07-26T05:14:38.017Z,28.45
2022-07-26T05:17:08.927Z,28.47
2022-07-26T05:19:38.331Z,28.50
2022-07-26T05:22:05.719Z,28.52
2022-07-26T05:24:33.296Z,28.57
2022-07-26T05:27:01.253Z,28.61
2022-07-26T05:34:33.228Z,28.60
2022-07-26T05:37:00.679Z,28.62
2022-07-26T05:39:28.129Z,28.68
2022-07-26T05:41:55.666Z,28.72
2022-07-26T05:44:24.465Z,28.74
2022-07-26T05:46:54.422Z,28.75
2022-07-26T05:49:22.059Z,28.76
2022-07-26T05:55:58.719Z,28.70
2022-07-26T05:58:26.289Z,28.74
2022-07-26T06:00:53.813Z,28.77
2022-07-26T06:03:24.077Z,28.75
2022-07-26T06:05:54.776Z,28.73
2022-07-26T06:08:23.207Z,28.72
2022-07-26T06:10:52.777Z,28.77
2022-07-26T06:17:57.066Z,28.82
2022-07-26T06:20:24.512Z,28.82
2022-07-26T06:22:52.923Z,28.82
2022-07-26T06:25:20.395Z,28.82
2022-07-26T06:27:47.730Z,28.85
2022-07-26T06:30:15.338Z,28.86
2022-07-26T06:32:45.398Z,28.87
2022-07-26T06:35:15.586Z,28.88
2022-07-26T06:42:52.611Z,28.88
2022-07-26T06:45:20.082Z,28.88
2022-07-26T06:47:47.409Z,28.90
2022-07-26T06:50:16.889Z,28.94
2022-07-26T06:52:53.183Z,28.94
2022-07-26T06:55:20.665Z,28.96
2022-07-26T06:57:50.188Z,28.97
2022-07-26T07:05:04.621Z,28.93
2022-07-26T07:07:35.058Z,28.93
2022-07-26T07:10:02.691Z,28.90
2022-07-26T07:12:32.092Z,28.90
2022-07-26T07:14:59.578Z,28.91
2022-07-26T07:17:27.010Z,28.93
2022-07-26T07:19:54.547Z,28.92
2022-07-26T07:27:27.404Z,28.93
2022-07-26T07:29:54.981Z,28.92
2022-07-26T07:32:24.659Z,28.91
2022-07-26T07:34:52.459Z,28.92
2022-07-26T07:37:20.832Z,28.93
2022-07-26T07:39:50.967Z,28.91
2022-07-26T07:42:19.614Z,28.89
2022-07-26T07:49:32.698Z,28.90
2022-07-26T07:52:00.379Z,28.91
2022-07-26T07:54:27.747Z,28.91
2022-07-26T07:56:56.287Z,28.92
2022-07-26T07:59:24.211Z,28.92
2022-07-26T08:01:52.825Z,28.93
2022-07-26T08:04:20.422Z,28.92
2022-07-26T08:11:13.639Z,29.23
2022-07-26T08:13:45.808Z,29.08
2022-07-26T08:16:17.274Z,29.04
2022-07-26T08:18:57.387Z,29.04
2022-07-26T08:21:29.059Z,29.02
2022-07-26T08:23:57.730Z,28.99
2022-07-26T08:31:45.491Z,28.97
2022-07-26T08:34:13.235Z,28.95
2022-07-26T08:36:54.935Z,28.95
2022-07-26T08:39:28.050Z,28.96
2022-07-26T08:41:55.391Z,28.99
2022-07-26T08:44:22.781Z,28.99
2022-07-26T08:46:52.444Z,28.99
2022-07-26T08:49:20.190Z,28.98
2022-07-26T08:56:58.469Z,28.97
2022-07-26T08:59:27.083Z,28.96
2022-07-26T09:02:06.433Z,28.97
2022-07-26T09:04:43.597Z,28.96
2022-07-26T09:07:15.854Z,28.97
2022-07-26T09:09:56.607Z,28.98
2022-07-26T09:12:25.907Z,28.98
2022-07-26T09:17:45.775Z,29.03
2022-07-26T09:20:16.892Z,28.97
2022-07-26T09:23:07.773Z,28.90
2022-07-26T09:25:43.320Z,28.83
2022-07-26T09:28:32.601Z,28.81
2022-07-26T09:31:04.019Z,28.79
2022-07-26T09:33:52.346Z,28.78
2022-07-26T09:41:37.686Z,28.66
2022-07-26T09:44:19.327Z,28.61
2022-07-26T09:46:58.623Z,28.49
2022-07-26T09:49:32.490Z,28.21
2022-07-26T09:52:28.304Z,27.85
2022-07-26T09:55:06.573Z,27.54
2022-07-26T09:57:36.977Z,27.35
2022-07-26T10:03:25.954Z,27.17
2022-07-26T10:05:54.011Z,27.16
2022-07-26T10:08:22.311Z,27.13
2022-07-26T10:11:11.826Z,27.10
2022-07-26T10:13:39.912Z,27.01
2022-07-26T10:16:27.241Z,27.00
2022-07-26T10:18:56.870Z,27.01
2022-07-26T10:29:37.858Z,27.29
2022-07-26T10:32:17.998Z,27.38
2022-07-26T10:34:46.326Z,27.40
2022-07-26T10:37:23.291Z,27.46
2022-07-26T10:40:14.922Z,27.51
2022-07-26T10:42:44.909Z,27.58
2022-07-26T10:45:23.323Z,27.68
2022-07-26T10:56:36.558Z,27.94
2022-07-26T10:59:05.469Z,27.90
2022-07-26T11:01:34.539Z,27.84
2022-07-26T11:04:02.603Z,27.74
2022-07-26T11:06:32.275Z,27.68
2022-07-26T11:09:11.703Z,27.63
2022-07-26T11:11:39.353Z,27.59
2022-07-26T11:18:16.549Z,27.47
2022-07-26T11:20:45.937Z,27.14
2022-07-26T11:23:28.212Z,26.99
2022-07-26T11:26:12.629Z,26.86
2022-07-26T11:29:08.022Z,26.81
2022-07-26T11:31:50.737Z,26.83
2022-07-26T11:34:29.966Z,26.84
2022-07-26T11:45:12.788Z,25.95
2022-07-26T11:47:40.376Z,25.64
2022-07-26T11:50:22.122Z,25.60
2022-07-26T11:52:52.649Z,25.61
2022-07-26T11:55:32.400Z,25.64
2022-07-26T11:58:06.285Z,25.69
2022-07-26T12:00:34.020Z,25.71
2022-07-26T12:09:40.816Z,26.01
2022-07-26T12:12:18.709Z,26.11
2022-07-26T12:14:58.774Z,26.22
2022-07-26T12:17:27.129Z,26.26
2022-07-26T12:20:18.709Z,26.36
2022-07-26T12:23:00.228Z,26.40
2022-07-26T12:25:32.538Z,26.43
2022-07-26T12:30:48.057Z,26.50
2022-07-26T12:33:15.583Z,26.55
2022-07-26T12:35:43.619Z,26.60
2022-07-26T12:38:13.145Z,26.64
2022-07-26T12:40:41.624Z,26.67
2022-07-26T12:43:09.267Z,26.69
2022-07-26T12:45:39.015Z,26.72
2022-07-26T12:50:51.612Z,26.77
2022-07-26T12:53:19.981Z,26.80
2022-07-26T12:55:47.300Z,26.84
2022-07-26T12:58:14.924Z,26.86
2022-07-26T13:00:42.292Z,26.90
2022-07-26T13:03:11.741Z,26.93
2022-07-26T13:05:40.685Z,26.95
2022-07-26T13:12:17.156Z,27.02
2022-07-26T13:14:45.391Z,27.04
2022-07-26T13:17:13.838Z,27.11
2022-07-26T13:19:41.629Z,27.17
2022-07-26T13:22:09.664Z,27.24
2022-07-26T13:24:40.161Z,27.31
2022-07-26T13:27:08.910Z,27.41
2022-07-26T13:33:42.880Z,27.89
2022-07-26T13:36:10.441Z,27.81
2022-07-26T13:38:40.405Z,27.78
2022-07-26T13:41:09.043Z,27.86
2022-07-26T13:43:36.484Z,27.97
2022-07-26T13:46:04.374Z,28.07
2022-07-26T13:48:34.700Z,28.17
2022-07-26T13:51:02.391Z,28.26
2022-07-26T14:01:03.736Z,28.91
2022-07-26T14:03:35.512Z,29.10
2022-07-26T14:06:03.172Z,29.47
2022-07-26T14:08:30.653Z,29.90
2022-07-26T14:10:58.475Z,30.33
2022-07-26T14:13:26.374Z,30.66
2022-07-26T14:15:54.013Z,30.78
2022-07-26T14:18:21.986Z,30.99
2022-07-26T14:25:49.327Z,31.72
2022-07-26T14:28:16.807Z,31.94
2022-07-26T14:30:44.203Z,32.15
2022-07-26T14:33:13.616Z,32.31
2022-07-26T14:35:44.595Z,32.40
2022-07-26T14:38:17.045Z,32.43
2022-07-26T14:40:49.924Z,32.33
2022-07-26T14:47:54.601Z,32.26
2022-07-26T14:50:27.978Z,32.13
2022-07-26T14:52:56.567Z,32.03
2022-07-26T14:55:25.534Z,32.09
2022-07-26T14:57:53.551Z,32.10
2022-07-26T15:00:21.490Z,32.20
2022-07-26T15:02:49.473Z,32.22
2022-07-26T15:12:48.215Z,32.13
2022-07-26T15:15:15.668Z,32.06
2022-07-26T15:17:43.336Z,31.94
2022-07-26T15:20:12.726Z,31.87
2022-07-26T15:22:40.374Z,31.83
2022-07-26T15:25:08.328Z,31.83
2022-07-26T15:27:35.771Z,31.75
2022-07-26T15:32:44.651Z,31.63
2022-07-26T15:35:14.873Z,31.61
2022-07-26T15:37:47.928Z,31.50
2022-07-26T15:40:16.315Z,31.47
2022-07-26T15:42:45.584Z,31.51
2022-07-26T15:45:14.218Z,31.55
2022-07-26T15:48:09.424Z,31.63
2022-07-26T15:53:03.328Z,31.69
2022-07-26T15:55:32.807Z,31.82
2022-07-26T15:58:01.824Z,31.90
2022-07-26T16:00:29.281Z,31.98
2022-07-26T16:02:56.702Z,32.07
2022-07-26T16:05:24.072Z,32.10
2022-07-26T16:07:53.447Z,32.07
2022-07-26T16:15:44.372Z,31.91
2022-07-26T16:18:15.204Z,31.94
2022-07-26T16:20:42.869Z,32.00
2022-07-26T16:23:10.365Z,32.00
2022-07-26T16:25:39.185Z,32.06
2022-07-26T16:28:06.585Z,32.24
2022-07-26T16:30:36.707Z,32.42
2022-07-26T16:37:55.598Z,32.47
2022-07-26T16:40:23.090Z,32.51
2022-07-26T16:42:52.048Z,32.75
2022-07-26T16:45:21.217Z,32.94
2022-07-26T16:47:48.579Z,33.14
2022-07-26T16:50:27.384Z,33.22
2022-07-26T16:52:55.338Z,33.00
2022-07-26T16:58:55.330Z,30.54
2022-07-26T17:01:23.180Z,29.51
2022-07-26T17:03:53.496Z,28.88
2022-07-26T17:06:22.173Z,28.43
2022-07-26T17:08:49.544Z,28.12
2022-07-26T17:11:17.054Z,28.05
2022-07-26T17:13:44.549Z,28.08
2022-07-26T17:20:22.199Z,28.01
2022-07-26T17:22:49.694Z,27.95
2022-07-26T17:25:17.310Z,27.96
2022-07-26T17:27:44.945Z,27.83
2022-07-26T17:30:14.380Z,27.68
2022-07-26T17:32:42.171Z,27.52
2022-07-26T17:35:10.747Z,27.46
2022-07-26T17:37:42.190Z,27.45
2022-07-26T17:45:22.524Z,27.25
2022-07-26T17:47:50.008Z,27.15
2022-07-26T17:50:37.683Z,27.04
2022-07-26T17:53:07.799Z,26.97
2022-07-26T17:55:35.256Z,26.91
2022-07-26T17:58:03.771Z,26.92
2022-07-26T18:00:33.210Z,26.95
2022-07-26T18:03:02.023Z,26.97
2022-07-26T18:10:34.863Z,27.01
2022-07-26T18:13:02.773Z,27.09
2022-07-26T18:15:30.136Z,27.17
2022-07-26T18:17:57.979Z,27.27
2022-07-26T18:20:25.457Z,27.36
2022-07-26T18:22:54.758Z,27.44
2022-07-26T18:25:22.966Z,27.48
2022-07-26T18:32:03.339Z,27.54
2022-07-26T18:34:32.670Z,27.62
2022-07-26T18:36:59.993Z,27.66
2022-07-26T18:39:32.619Z,27.76
2022-07-26T18:42:01.014Z,27.87
2022-07-26T18:44:28.395Z,27.88
2022-07-26T18:46:56.198Z,27.77
2022-07-26T18:52:16.451Z,27.70
2022-07-26T18:54:43.879Z,27.68
2022-07-26T18:57:13.110Z,27.64
2022-07-26T18:59:40.560Z,27.65
2022-07-26T19:02:07.943Z,27.68
2022-07-26T19:04:35.581Z,27.69
2022-07-26T19:07:02.982Z,27.76
2022-07-26T19:09:32.908Z,27.85
2022-07-26T19:17:09.609Z,28.28
2022-07-26T19:19:38.121Z,28.42
2022-07-26T19:22:06.010Z,28.63
2022-07-26T19:24:42.393Z,28.71
2022-07-26T19:27:10.298Z,28.74
2022-07-26T19:29:38.032Z,28.77
2022-07-26T19:32:06.015Z,28.86
2022-07-26T19:39:05.102Z,29.05
2022-07-26T19:41:34.430Z,29.15
2022-07-26T19:44:02.088Z,29.22
2022-07-26T19:46:29.617Z,29.31
2022-07-26T19:48:57.173Z,29.35
2022-07-26T19:51:25.111Z,29.45
2022-07-26T19:53:54.526Z,29.50
2022-07-26T20:00:32.825Z,29.72
2022-07-26T20:03:01.468Z,29.75
2022-07-26T20:05:28.951Z,29.79
2022-07-26T20:07:56.459Z,29.80
2022-07-26T20:10:27.353Z,29.82
2022-07-26T20:13:00.040Z,29.88
2022-07-26T20:15:27.534Z,29.99
2022-07-26T20:17:55.473Z,30.09
2022-07-26T20:25:27.640Z,30.28
2022-07-26T20:27:55.156Z,30.33
2022-07-26T20:30:22.534Z,30.47
2022-07-26T20:32:50.078Z,30.59
2022-07-26T20:35:17.454Z,30.72
2022-07-26T20:37:45.336Z,30.70
2022-07-26T20:40:15.594Z,30.59
2022-07-26T20:49:33.429Z,30.45
2022-07-26T20:52:04.217Z,30.44
2022-07-26T20:54:33.507Z,30.43
2022-07-26T20:57:04.282Z,30.42
2022-07-26T20:59:34.910Z,30.52
2022-07-26T21:02:03.036Z,30.51
2022-07-26T21:04:33.563Z,30.50
2022-07-26T21:14:50.522Z,30.49
2022-07-26T21:17:18.903Z,30.45
2022-07-26T21:19:46.362Z,30.45
2022-07-26T21:22:14.544Z,30.39
2022-07-26T21:24:43.370Z,30.31
2022-07-26T21:27:10.929Z,30.27
2022-07-26T21:29:39.793Z,30.29
2022-07-26T21:36:46.327Z,30.26
2022-07-26T21:39:14.785Z,30.19
2022-07-26T21:41:42.282Z,30.11
2022-07-26T21:44:10.050Z,30.05
2022-07-26T21:46:37.640Z,30.03
2022-07-26T21:49:05.458Z,30.04
2022-07-26T21:51:33.452Z,30.05
2022-07-26T21:54:01.776Z,30.02
2022-07-26T22:03:54.876Z,29.96
2022-07-26T22:06:22.314Z,29.94
2022-07-26T22:08:49.706Z,29.87
2022-07-26T22:11:17.210Z,29.82
2022-07-26T22:13:45.103Z,29.81
2022-07-26T22:16:15.810Z,29.79
2022-07-26T22:18:43.776Z,29.76
2022-07-26T22:25:23.869Z,29.73
2022-07-26T22:27:53.116Z,29.74
2022-07-26T22:30:20.985Z,29.73
2022-07-26T22:32:48.670Z,29.72
2022-07-26T22:35:16.109Z,29.73
2022-07-26T22:37:43.517Z,29.71
2022-07-26T22:40:15.076Z,29.72
2022-07-26T22:45:21.886Z,29.66
2022-07-26T22:47:56.297Z,29.66
2022-07-26T22:50:25.451Z,29.63
2022-07-26T22:52:55.750Z,29.62
2022-07-26T22:55:24.081Z,29.57
2022-07-26T22:57:53.055Z,29.54
2022-07-26T23:00:21.236Z,29.55
2022-07-26T23:05:45.211Z,29.50
2022-07-26T23:08:45.704Z,29.50
2022-07-26T23:11:03.700Z,29.48
2022-07-26T23:13:31.218Z,29.46
2022-07-26T23:16:01.688Z,29.44
2022-07-26T23:18:31.286Z,29.41
2022-07-26T23:21:00.381Z,29.37
2022-07-26T23:26:07.761Z,29.34
2022-07-26T23:28:38.094Z,29.32
2022-07-26T23:31:11.577Z,29.33
2022-07-26T23:33:51.612Z,29.31
2022-07-26T23:36:30.552Z,29.30
2022-07-26T23:39:00.603Z,29.25
2022-07-26T23:41:28.251Z,29.22
2022-07-26T23:51:42.670Z,29.16
2022-07-26T23:54:10.123Z,29.14
2022-07-26T23:56:37.930Z,29.15
2022-07-26T23:59:05.549Z,29.11
